Time;durP1;ratioP1;P1;durP2;ratioP2;P2;SDS_P1;SDS_P2;PMS_P1;PMS_P2;Temp;Humidity;BMP_temperature;BMP_pressure;BME280_temperature;BME280_humidity;BME280_pressure;Samples;Min_cycle;Max_cycle;Signal;HPM_P1;HPM_P2
2023/03/24 00:01:30;;;;;;;;;3.00;1.00;;;;;27.70;31.38;99939.50;5094348;27;46236;-77
2023/03/24 00:03:56;;;;;;;;;0.00;0.00;;;;;27.68;31.35;99940.75;5100366;27;45466;-77
2023/03/24 00:06:21;;;;;;;;;0.00;0.00;;;;;27.70;31.74;99946.81;5096666;27;45306;-78
2023/03/24 00:08:47;;;;;;;;;0.00;0.00;;;;;27.70;31.87;99938.66;5097190;27;45583;-78
2023/03/24 00:11:13;;;;;;;;;1.00;0.00;;;;;27.65;31.41;99944.75;5095675;27;45429;-77
2023/03/24 00:13:40;;;;;;;;;0.33;0.33;;;;;27.67;31.09;99947.28;5096921;27;45473;-78
2023/03/24 00:16:06;;;;;;;;;0.67;0.67;;;;;27.68;31.51;99965.28;5098668;27;45506;-78
2023/03/24 00:18:32;;;;;;;;;0.33;0.33;;;;;27.67;31.79;99958.19;5095355;27;45613;-78
2023/03/24 00:20:57;;;;;;;;;2.00;0.33;;;;;27.65;31.44;99954.81;5095730;27;46199;-77
2023/03/24 00:23:31;;;;;;;;;0.00;0.00;;;;;27.69;31.23;99958.78;5096973;27;45545;-78
2023/03/24 00:26:01;;;;;;;;;3.00;0.00;;;;;27.70;31.79;99958.56;5096578;27;45634;-78
2023/03/24 00:28:32;;;;;;;;;0.00;0.00;;;;;27.65;31.77;99952.94;5101844;27;45482;-78
2023/03/24 00:30:58;;;;;;;;;0.00;0.00;;;;;27.66;31.58;99953.78;5102665;27;46158;-77
2023/03/24 00:33:24;;;;;;;;;1.00;1.00;;;;;27.68;31.87;99968.88;5096000;27;45452;-77
2023/03/24 00:35:49;;;;;;;;;0.00;0.00;;;;;27.70;31.29;99963.19;5096379;27;45412;-78
2023/03/24 00:38:15;;;;;;;;;0.00;0.00;;;;;27.69;31.27;99967.81;5096239;27;45398;-77
2023/03/24 00:40:50;;;;;;;;;1.00;1.00;;;;;27.69;31.34;99976.00;5095740;27;45644;-77
2023/03/24 00:43:16;;;;;;;;;0.33;0.33;;;;;27.62;31.77;99962.38;5095361;27;45341;-77
2023/03/24 00:45:47;;;;;;;;;2.00;0.67;;;;;27.67;31.34;99961.72;5097174;27;45478;-77
2023/03/24 00:48:14;;;;;;;;;0.00;0.00;;;;;27.66;31.62;99960.06;5095598;27;45449;-78
2023/03/24 00:50:44;;;;;;;;;0.00;0.00;;;;;27.68;31.23;99979.78;5094740;27;47038;-78
2023/03/24 00:53:10;;;;;;;;;1.00;1.00;;;;;27.68;31.79;99978.91;5095583;27;45494;-77
2023/03/24 00:55:36;;;;;;;;;0.33;0.33;;;;;27.68;31.79;99978.91;5095895;27;45484;-78
2023/03/24 00:58:03;;;;;;;;;0.33;0.33;;;;;27.65;31.48;99974.75;5092345;27;45609;-77
2023/03/24 01:00:28;;;;;;;;;1.00;1.00;;;;;27.60;31.49;99980.84;5095535;27;45502;-78
2023/03/24 01:02:56;;;;;;;;;1.00;1.00;;;;;27.67;31.54;99996.34;5094059;27;45742;-78
2023/03/24 01:05:29;;;;;;;;;0.33;0.33;;;;;27.65;31.59;99995.69;5098400;27;45473;-77
2023/03/24 01:08:01;;;;;;;;;0.00;0.00;;;;;27.68;31.62;99974.31;5094227;27;45388;-78
2023/03/24 01:10:28;;;;;;;;;0.00;0.00;;;;;27.65;31.16;99974.75;5094542;27;45528;-77
2023/03/24 01:12:55;;;;;;;;;0.67;0.67;;;;;27.67;31.90;99971.81;5094826;27;45469;-77
2023/03/24 01:15:23;;;;;;;;;0.00;0.00;;;;;27.66;31.15;99992.75;5094494;27;45482;-77
2023/03/24 01:17:49;;;;;;;;;0.00;0.00;;;;;27.63;31.51;100006.84;5095272;27;45682;-78
2023/03/24 01:20:15;;;;;;;;;0.00;0.00;;;;;27.62;31.42;99996.97;5096312;27;47025;-77
2023/03/24 01:22:43;;;;;;;;;1.00;1.00;;;;;27.63;31.78;99990.47;5099736;27;45593;-77
2023/03/24 01:25:15;;;;;;;;;1.00;0.67;;;;;27.63;31.13;99990.47;5095653;27;45576;-77
2023/03/24 01:27:42;;;;;;;;;1.00;0.00;;;;;27.57;31.92;99973.06;5095034;27;45449;-77
2023/03/24 01:30:10;;;;;;;;;1.00;1.00;;;;;27.58;31.06;99958.38;5095515;27;46462;-77
2023/03/24 01:32:36;;;;;;;;;1.00;1.00;;;;;27.55;32.00;99937.00;5099349;27;45413;-77
2023/03/24 01:35:01;;;;;;;;;1.00;1.00;;;;;27.60;31.78;99961.78;5093932;27;45384;-77
2023/03/24 01:37:27;;;;;;;;;0.00;0.00;;;;;27.60;31.39;99978.13;5095486;27;45460;-77
2023/03/24 01:39:52;;;;;;;;;1.00;0.00;;;;;27.59;31.16;99978.31;5095199;27;46224;-78
2023/03/24 01:42:21;;;;;;;;;1.00;1.00;;;;;27.57;31.89;99989.41;5094364;27;45414;-77
2023/03/24 01:44:53;;;;;;;;;0.00;0.00;;;;;27.58;31.79;100004.72;5095109;27;45377;-78
2023/03/24 01:47:18;;;;;;;;;1.00;1.00;;;;;27.60;31.60;100001.81;5093432;27;45567;-77
2023/03/24 01:49:48;;;;;;;;;1.00;1.00;;;;;27.60;31.38;100009.97;5094777;27;46341;-77
2023/03/24 01:52:22;;;;;;;;;1.00;1.00;;;;;27.58;31.86;100004.72;5095372;27;45431;-77
2023/03/24 01:54:53;;;;;;;;;0.67;0.67;;;;;27.59;31.18;100011.00;5096403;27;45458;-78
2023/03/24 01:57:39;;;;;;;;;0.67;0.67;;;;;27.57;31.49;100008.50;5095525;27;45474;-77
2023/03/24 02:00:11;;;;;;;;;1.00;1.00;;;;;27.58;31.51;100017.50;5094840;27;46343;-77
2023/03/24 02:02:39;;;;;;;;;0.00;0.00;;;;;27.56;31.35;100005.97;5093539;27;45485;-77
2023/03/24 02:05:07;;;;;;;;;0.67;0.00;;;;;27.57;31.65;99994.88;5094596;27;45483;-77
2023/03/24 02:07:57;;;;;;;;;0.00;0.00;;;;;27.59;31.20;99989.22;5094792;27;45348;-78
2023/03/24 02:10:23;;;;;;;;;0.00;0.00;;;;;27.54;31.89;99978.13;5095750;27;46327;-77
2023/03/24 02:12:49;;;;;;;;;1.67;1.67;;;;;27.56;31.39;99979.56;5095495;27;45695;-78
2023/03/24 02:15:17;;;;;;;;;0.00;0.00;;;;;27.54;31.26;99973.47;5094882;27;45397;-77
2023/03/24 02:18:04;;;;;;;;;0.67;0.67;;;;;27.55;31.92;99977.88;5087207;27;45478;-78
2023/03/24 02:20:45;;;;;;;;;0.33;0.33;;;;;27.57;31.89;99986.69;5093293;27;45568;-77
2023/03/24 02:23:26;;;;;;;;;0.00;0.00;;;;;27.58;31.18;99998.41;5085211;27;45435;-77
2023/03/24 02:26:10;;;;;;;;;0.00;0.00;;;;;27.56;31.85;99992.34;5096804;27;45478;-77
2023/03/24 02:28:48;;;;;;;;;0.00;0.00;;;;;27.54;31.81;99995.28;5093373;27;45574;-78
2023/03/24 02:31:23;;;;;;;;;0.67;0.67;;;;;27.52;31.83;99991.94;5093371;27;45809;-78
2023/03/24 02:34:10;;;;;;;;;0.00;0.00;;;;;27.54;31.91;100006.19;5093019;27;45515;-78
2023/03/24 02:37:06;;;;;;;;;1.00;1.00;;;;;27.55;31.76;100001.59;5094562;27;45397;-77
2023/03/24 02:39:34;;;;;;;;;1.00;1.00;;;;;27.56;31.12;100014.16;5092897;27;45504;-77
2023/03/24 02:42:24;;;;;;;;;0.33;0.33;;;;;27.54;31.56;100016.25;5096988;27;45397;-77
2023/03/24 02:45:13;;;;;;;;;0.33;0.33;;;;;27.54;31.96;100016.25;5097522;27;45372;-78
2023/03/24 02:47:47;;;;;;;;;0.67;0.67;;;;;27.54;31.90;100008.91;5084454;27;45442;-78
2023/03/24 02:50:37;;;;;;;;;0.00;0.00;;;;;27.56;31.13;100008.69;5094213;27;45542;-77
2023/03/24 02:53:15;;;;;;;;;1.00;1.00;;;;;27.54;31.25;100000.72;5096689;27;45479;-78
2023/03/24 02:55:55;;;;;;;;;0.00;0.00;;;;;27.53;31.30;100004.50;5091651;27;45854;-78
2023/03/24 02:58:41;;;;;;;;;1.00;1.00;;;;;27.50;31.41;100002.19;5094085;27;45450;-78
2023/03/24 03:01:17;;;;;;;;;1.00;1.00;;;;;27.50;31.16;100002.19;5109781;27;45560;-77
2023/03/24 03:03:49;;;;;;;;;0.00;0.00;;;;;27.52;31.28;100010.19;5092951;27;45545;-78
2023/03/24 03:06:21;;;;;;;;;1.00;1.00;;;;;27.54;31.26;100010.81;5090819;27;45582;-77
2023/03/24 03:08:49;;;;;;;;;0.33;0.33;;;;;27.51;31.88;100016.69;5084893;27;45438;-78
2023/03/24 03:11:16;;;;;;;;;0.00;0.00;;;;;27.46;31.78;100020.06;5090571;27;45502;-77
2023/03/24 03:13:53;;;;;;;;;0.00;0.00;;;;;27.46;31.39;100018.16;5088707;27;47681;-78
2023/03/24 03:16:24;;;;;;;;;1.00;1.00;;;;;27.46;31.70;100020.88;5092334;27;45406;-77
2023/03/24 03:19:00;;;;;;;;;1.00;1.00;;;;;27.47;31.91;100021.72;5093961;27;45456;-78
2023/03/24 03:21:31;;;;;;;;;0.00;0.00;;;;;27.46;31.37;100025.50;5092424;27;45441;-78
2023/03/24 03:24:02;;;;;;;;;0.00;0.00;;;;;27.42;31.30;100037.88;5093525;27;46279;-78
2023/03/24 03:26:31;;;;;;;;;0.00;0.00;;;;;27.42;31.66;100041.41;5093568;27;45441;-78
2023/03/24 03:29:04;;;;;;;;;1.00;1.00;;;;;27.41;31.52;100039.75;5094882;27;45450;-78
2023/03/24 03:31:40;;;;;;;;;1.00;1.00;;;;;27.40;31.22;100035.34;5094418;27;45384;-77
2023/03/24 03:34:30;;;;;;;;;0.00;0.00;;;;;27.45;31.32;100046.47;5099791;27;45397;-77
2023/03/24 03:37:07;;;;;;;;;1.00;1.00;;;;;27.46;31.39;100044.59;5087132;27;45364;-77
2023/03/24 03:39:38;;;;;;;;;1.00;1.00;;;;;27.44;31.29;100044.78;5096078;27;45418;-77
2023/03/24 03:42:05;;;;;;;;;0.00;0.00;;;;;27.44;31.45;100041.22;5097116;27;45434;-78
2023/03/24 03:44:31;;;;;;;;;0.00;0.00;;;;;27.38;31.55;100023.81;5095257;27;48166;-78
2023/03/24 03:46:56;;;;;;;;;0.00;0.00;;;;;27.42;31.82;100037.88;5096524;27;45739;-78
2023/03/24 03:49:22;;;;;;;;;1.00;1.00;;;;;27.40;31.42;100040.81;5098180;27;45639;-77
2023/03/24 03:51:49;;;;;;;;;1.00;1.00;;;;;27.42;31.65;100033.25;5095331;27;46534;-78
2023/03/24 03:54:15;;;;;;;;;0.33;0.33;;;;;27.41;31.71;100037.03;5097054;27;45481;-77
2023/03/24 03:56:41;;;;;;;;;0.67;0.67;;;;;27.41;31.40;100028.00;5095479;27;45432;-77
2023/03/24 03:59:08;;;;;;;;;0.00;0.00;;;;;27.41;31.72;100037.03;5096953;27;45754;-77
2023/03/24 04:01:36;;;;;;;;;0.00;0.00;;;;;27.41;31.69;100050.66;5096613;27;45969;-77
2023/03/24 04:04:32;;;;;;;;;1.00;1.00;;;;;27.36;31.61;100045.00;5095892;27;45439;-77
2023/03/24 04:07:15;;;;;;;;;1.00;1.00;;;;;27.42;31.28;100059.69;5093431;27;45401;-77
2023/03/24 04:10:13;;;;;;;;;1.00;1.00;;;;;27.40;31.21;100059.88;5095300;27;45418;-78
2023/03/24 04:12:57;;;;;;;;;0.00;0.00;;;;;27.38;31.89;100072.88;5087799;27;46481;-78
2023/03/24 04:15:58;;;;;;;;;0.00;0.00;;;;;27.39;31.95;100062.81;5091836;27;45521;-78
2023/03/24 04:18:27;;;;;;;;;1.00;1.00;;;;;27.46;32.00;100071.84;5091812;27;45636;-78
2023/03/24 04:21:27;;;;;;;;;1.00;0.00;;;;;27.52;31.70;100067.41;5094942;27;45548;-78
2023/03/24 04:24:26;;;;;;;;;0.33;0.33;;;;;27.53;31.82;100067.19;5097314;27;45471;-78
2023/03/24 04:27:08;;;;;;;;;0.00;0.00;;;;;27.56;31.80;100079.56;5088030;27;45429;-78
2023/03/24 04:29:53;;;;;;;;;0.00;0.00;;;;;27.55;31.59;100078.72;5095308;27;45443;-78
2023/03/24 04:32:40;;;;;;;;;2.00;1.00;;;;;27.57;31.76;100090.25;5093183;27;45836;-77
2023/03/24 04:35:11;;;;;;;;;0.00;0.00;;;;;27.57;31.46;100097.59;5095896;27;45490;-78
2023/03/24 04:37:37;;;;;;;;;0.00;0.00;;;;;27.59;31.79;100093.59;5096020;27;45491;-78
2023/03/24 04:40:10;;;;;;;;;0.00;0.00;;;;;27.62;31.24;100104.13;5095530;27;45431;-77
2023/03/24 04:42:45;;;;;;;;;0.00;0.00;;;;;27.64;31.82;100098.47;5096616;27;45371;-77
2023/03/24 04:45:13;;;;;;;;;0.00;0.00;;;;;27.65;31.72;100111.03;5090708;27;45574;-78
2023/03/24 04:47:53;;;;;;;;;0.00;0.00;;;;;27.69;31.67;100103.25;5095756;27;46141;-78
2023/03/24 04:50:40;;;;;;;;;1.00;1.00;;;;;27.70;31.42;100099.47;5094155;27;45952;-77
2023/03/24 04:53:07;;;;;;;;;0.00;0.00;;;;;27.70;31.57;100108.50;5095219;27;45466;-78
2023/03/24 04:55:54;;;;;;;;;0.00;0.00;;;;;27.73;31.89;100127.19;5096097;27;45653;-77
2023/03/24 04:58:21;;;;;;;;;0.00;0.00;;;;;27.73;31.55;100113.53;5095778;27;45649;-78
2023/03/24 05:00:48;;;;;;;;;0.00;0.00;;;;;27.73;31.59;100127.19;5095874;27;45471;-78
2023/03/24 05:03:14;;;;;;;;;0.00;0.00;;;;;27.75;31.30;100126.97;5094466;27;45842;-78
2023/03/24 05:05:41;;;;;;;;;0.00;0.00;;;;;27.76;31.96;100134.09;5094474;27;45435;-78
2023/03/24 05:08:07;;;;;;;;;0.00;0.00;;;;;27.75;31.57;100133.25;5106970;27;47424;-78
2023/03/24 05:10:33;;;;;;;;;0.00;0.00;;;;;27.76;31.91;100139.53;5102830;27;45489;-78
2023/03/24 05:12:58;;;;;;;;;0.33;0.33;;;;;27.78;31.52;100145.59;5098362;27;45439;-78
2023/03/24 05:15:24;;;;;;;;;0.00;0.00;;;;;27.80;31.78;100150.84;5098488;27;45617;-78
2023/03/24 05:17:51;;;;;;;;;0.67;0.67;;;;;27.77;31.67;100152.13;5094870;27;46007;-78
2023/03/24 05:20:16;;;;;;;;;1.00;1.00;;;;;27.79;31.18;100151.91;5095900;27;45504;-79
2023/03/24 05:22:42;;;;;;;;;0.33;0.00;;;;;27.81;31.66;100163.44;5095664;27;45425;-78
2023/03/24 05:25:07;;;;;;;;;2.67;0.00;;;;;27.81;31.72;100171.63;5095944;27;45953;-79
2023/03/24 05:27:33;;;;;;;;;1.00;1.00;;;;;27.75;31.68;100170.59;5095286;27;45407;-78
2023/03/24 05:29:58;;;;;;;;;0.00;0.00;;;;;27.77;31.00;100176.66;5102895;27;45382;-78
2023/03/24 05:32:23;;;;;;;;;0.00;0.00;;;;;27.75;31.12;100184.22;5095706;27;45449;-78
2023/03/24 05:34:49;;;;;;;;;1.33;1.00;;;;;27.77;31.71;100184.00;5094160;27;45376;-79
2023/03/24 05:37:16;;;;;;;;;0.00;0.00;;;;;27.71;31.70;100178.34;5095067;27;46549;-78
2023/03/24 05:39:42;;;;;;;;;0.00;0.00;;;;;27.74;31.53;100191.56;5095089;27;45513;-78
2023/03/24 05:42:07;;;;;;;;;1.00;1.00;;;;;27.75;31.27;100189.69;5096421;27;45564;-78
2023/03/24 05:44:33;;;;;;;;;0.00;0.00;;;;;27.75;31.61;100192.41;5093434;27;45575;-78
2023/03/24 05:46:58;;;;;;;;;0.00;0.00;;;;;27.75;31.60;100192.41;5095826;27;46119;-78
2023/03/24 05:49:23;;;;;;;;;0.00;0.00;;;;;27.77;31.17;100200.34;5104165;27;45716;-78
2023/03/24 05:51:49;;;;;;;;;0.33;0.33;;;;;27.78;31.74;100199.31;5083717;27;45511;-75
2023/03/24 05:54:14;;;;;;;;;0.00;0.00;;;;;27.76;31.12;100204.97;5085560;27;45597;-75
2023/03/24 05:56:40;;;;;;;;;0.00;0.00;;;;;27.75;31.63;100206.84;5083859;27;46542;-75
2023/03/24 05:59:05;;;;;;;;;0.00;0.00;;;;;27.72;31.55;100203.72;5086017;27;45517;-75
2023/03/24 06:01:30;;;;;;;;;0.00;0.00;;;;;27.72;31.21;100214.63;5077066;27;45710;-75
2023/03/24 06:03:56;;;;;;;;;0.00;0.00;;;;;27.72;31.59;100210.00;5087044;27;46182;-75
2023/03/24 06:06:21;;;;;;;;;0.00;0.00;;;;;27.74;31.61;100215.22;5086515;27;45567;-74
2023/03/24 06:08:47;;;;;;;;;0.00;0.00;;;;;27.75;30.94;100222.38;5084454;27;45399;-75
2023/03/24 06:11:12;;;;;;;;;0.00;0.00;;;;;27.75;31.03;100222.38;5093647;27;45696;-76
2023/03/24 06:13:38;;;;;;;;;0.00;0.00;;;;;27.74;31.68;100227.00;5094771;27;45683;-76
2023/03/24 06:16:03;;;;;;;;;0.00;0.00;;;;;27.72;31.66;100237.25;5096871;27;46135;-75
2023/03/24 06:18:29;;;;;;;;;0.00;0.00;;;;;27.74;31.41;100243.34;5088653;27;45494;-77
2023/03/24 06:20:55;;;;;;;;;0.00;0.00;;;;;27.77;31.59;100252.16;5085730;27;45657;-78
2023/03/24 06:23:26;;;;;;;;;0.00;0.00;;;;;27.78;31.68;100262.03;5086591;27;45535;-79
2023/03/24 06:25:52;;;;;;;;;0.00;0.00;;;;;27.76;31.58;100270.41;5085648;27;45385;-75
2023/03/24 06:28:18;;;;;;;;;0.00;0.00;;;;;27.75;31.60;100279.66;5085130;27;45447;-74
2023/03/24 06:30:45;;;;;;;;;0.00;0.00;;;;;27.74;31.06;100277.94;5076229;27;45556;-75
2023/03/24 06:33:12;;;;;;;;;0.00;0.00;;;;;27.73;31.55;100279.00;5084409;27;45583;-75
2023/03/24 06:35:38;;;;;;;;;0.00;0.00;;;;;27.72;30.98;100277.31;5087815;27;46521;-76
2023/03/24 06:38:04;;;;;;;;;0.00;0.00;;;;;27.76;31.64;100275.88;5087742;27;45961;-75
2023/03/24 06:40:30;;;;;;;;;0.00;0.00;;;;;27.78;31.67;100284.66;5098066;27;45389;-76
2023/03/24 06:42:56;;;;;;;;;0.00;0.00;;;;;27.74;31.22;100286.97;5093259;27;46351;-75
2023/03/24 06:45:21;;;;;;;;;0.00;0.00;;;;;27.75;31.63;100291.38;5092046;27;46294;-76
2023/03/24 06:47:47;;;;;;;;;0.00;0.00;;;;;27.75;30.99;100291.38;5091579;27;45478;-75
2023/03/24 06:50:12;;;;;;;;;0.00;0.00;;;;;27.75;31.03;100296.00;5091732;27;45493;-77
2023/03/24 06:52:37;;;;;;;;;1.00;1.00;;;;;27.77;31.20;100298.50;5091372;27;45396;-77
2023/03/24 06:55:04;;;;;;;;;0.00;0.00;;;;;27.75;31.14;100294.09;5083880;27;46065;-77
2023/03/24 06:57:30;;;;;;;;;2.00;0.00;;;;;27.75;31.32;100306.91;5052814;27;45862;-77
2023/03/24 06:59:55;;;;;;;;;1.00;0.00;;;;;27.77;31.47;100314.84;5051325;27;45762;-78
2023/03/24 07:02:21;;;;;;;;;1.00;1.00;;;;;27.75;31.64;100315.91;5059751;27;45707;-78
2023/03/24 07:04:47;;;;;;;;;0.00;0.00;;;;;27.75;31.71;100312.38;5051487;27;46220;-80
2023/03/24 07:07:13;;;;;;;;;0.00;0.00;;;;;27.76;31.48;100319.50;5053357;27;46248;-82
2023/03/24 07:09:38;;;;;;;;;1.00;1.00;;;;;27.75;31.77;100313.19;5051833;27;46750;-77
2023/03/24 07:12:05;;;;;;;;;2.33;0.67;;;;;27.75;31.11;100318.63;5051712;27;45577;-77
2023/03/24 07:14:32;;;;;;;;;0.00;0.00;;;;;27.75;31.08;100320.53;5059522;27;48940;-79
2023/03/24 07:16:58;;;;;;;;;3.00;0.00;;;;;27.70;31.52;100323.88;5093175;27;45635;-78
2023/03/24 07:19:23;;;;;;;;;0.00;0.00;;;;;27.66;31.41;100328.06;5085811;27;45566;-78
2023/03/24 07:21:49;;;;;;;;;1.33;1.33;;;;;27.61;31.32;100323.25;5091566;27;45644;-77
2023/03/24 07:24:15;;;;;;;;;1.33;0.67;;;;;27.65;31.39;100330.97;5093381;27;45903;-77
2023/03/24 07:26:41;;;;;;;;;1.00;1.00;;;;;27.62;31.26;100332.25;5093546;27;45401;-78
2023/03/24 07:29:06;;;;;;;;;1.00;1.00;;;;;27.61;31.06;100341.47;5093154;27;45417;-78
2023/03/24 07:31:36;;;;;;;;;1.33;1.33;;;;;27.65;31.65;100339.16;5093065;27;47980;-78
2023/03/24 07:34:02;;;;;;;;;0.67;0.67;;;;;27.66;31.82;100347.13;5092642;27;45866;-78
2023/03/24 07:36:27;;;;;;;;;1.00;1.00;;;;;27.68;31.71;100350.53;5088552;27;45597;-78
2023/03/24 07:38:53;;;;;;;;;2.00;1.00;;;;;27.66;31.71;100349.88;5052483;27;46767;-79
2023/03/24 07:41:18;;;;;;;;;1.00;1.00;;;;;27.67;31.16;100348.81;5051565;27;47306;-77
2023/03/24 07:43:43;;;;;;;;;3.00;1.67;;;;;27.65;31.03;100360.97;5047795;27;46652;-75
2023/03/24 07:46:09;;;;;;;;;4.00;1.00;;;;;27.66;31.17;100355.31;5047293;27;46419;-75
2023/03/24 07:48:34;;;;;;;;;2.33;1.00;;;;;27.66;31.63;100368.94;5046432;27;47159;-77
2023/03/24 07:51:00;;;;;;;;;2.67;1.00;;;;;27.70;31.51;100363.91;5046865;27;46727;-78
2023/03/24 07:53:25;;;;;;;;;3.33;2.67;;;;;27.73;31.67;100363.50;5045256;27;46990;-74
2023/03/24 07:55:50;;;;;;;;;2.67;1.00;;;;;27.77;31.43;100359.34;5049599;27;46177;-74
2023/03/24 07:58:16;;;;;;;;;3.00;1.00;;;;;27.82;32.13;100370.47;5046431;27;46789;-73
2023/03/24 08:00:41;;;;;;;;;2.67;1.33;;;;;27.85;31.53;100370.06;5046048;27;46222;-77
2023/03/24 08:03:13;;;;;;;;;2.33;1.00;;;;;27.89;32.28;100367.75;5045236;27;46269;-76
2023/03/24 08:05:39;;;;;;;;;2.33;1.00;;;;;27.94;32.40;100367.97;5049048;27;47064;-77
2023/03/24 08:08:05;;;;;;;;;2.00;1.00;;;;;27.99;31.68;100370.06;5046133;27;46781;-77
2023/03/24 08:10:31;;;;;;;;;0.67;0.67;;;;;28.05;31.84;100373.84;5046933;27;46250;-76
2023/03/24 08:12:57;;;;;;;;;2.67;1.00;;;;;28.06;31.80;100370.06;5044705;27;47228;-76
2023/03/24 08:15:24;;;;;;;;;1.00;1.00;;;;;28.13;32.32;100381.84;5051210;27;46775;-76
2023/03/24 08:17:50;;;;;;;;;2.33;1.00;;;;;28.10;32.49;100380.38;5050190;27;45792;-76
2023/03/24 08:20:17;;;;;;;;;1.00;1.00;;;;;28.18;32.01;100387.50;5049269;27;46669;-76
2023/03/24 08:22:48;;;;;;;;;0.33;0.33;;;;;28.17;32.06;100383.09;5048293;27;46642;-76
2023/03/24 08:25:15;;;;;;;;;2.67;2.67;;;;;28.18;32.11;100390.22;5049002;27;45659;-75
2023/03/24 08:27:43;;;;;;;;;3.00;1.00;;;;;28.23;32.00;100400.50;5050150;27;45689;-76
2023/03/24 08:30:12;;;;;;;;;3.00;3.00;;;;;28.23;32.42;100386.88;5051303;27;45819;-76
2023/03/24 08:32:46;;;;;;;;;2.00;2.00;;;;;28.26;32.25;100392.78;5050290;27;47689;-76
2023/03/24 08:35:14;;;;;;;;;2.67;2.33;;;;;28.30;32.44;100403.28;5049052;27;47071;-75
2023/03/24 08:37:44;;;;;;;;;2.67;1.67;;;;;28.30;32.11;100395.94;5049585;27;46809;-75
2023/03/24 08:40:13;;;;;;;;;3.50;2.00;;;;;28.30;32.18;100400.53;5049747;27;45577;-76
2023/03/24 08:42:39;;;;;;;;;1.33;0.00;;;;;28.31;32.71;100399.53;5049772;27;46908;-75
2023/03/24 08:45:05;;;;;;;;;2.33;1.00;;;;;28.34;32.38;100396.34;5049665;27;46739;-78
2023/03/24 08:47:31;;;;;;;;;1.00;1.00;;;;;28.35;32.64;100398.03;5054815;27;45657;-84
2023/03/24 08:49:56;;;;;;;;;2.00;2.00;;;;;28.37;32.09;100409.59;5049093;27;46140;-85
2023/03/24 08:52:23;;;;;;;;;2.00;2.00;;;;;28.35;32.22;100411.66;5047589;27;48324;-75
2023/03/24 08:54:49;;;;;;;;;1.00;1.00;;;;;28.34;31.62;100410.84;5047746;27;46524;-76
2023/03/24 08:57:16;;;;;;;;;2.00;2.00;;;;;28.34;31.79;100413.56;5048783;27;47025;-75
2023/03/24 08:59:41;;;;;;;;;2.00;0.00;;;;;28.36;31.71;100408.75;5048677;27;46392;-79
2023/03/24 09:02:10;;;;;;;;;1.33;1.33;;;;;28.38;31.70;100423.03;5048060;27;47076;-82
2023/03/24 09:04:36;;;;;;;;;1.00;1.00;;;;;28.38;31.92;100414.84;5053553;27;46784;-83
2023/03/24 09:07:02;;;;;;;;;7.00;1.00;;;;;28.39;31.42;100424.69;5049119;27;46768;-82
2023/03/24 09:09:28;;;;;;;;;3.67;3.00;;;;;28.36;31.24;100427.84;5047854;27;45560;-84
2023/03/24 09:11:53;;;;;;;;;1.00;1.00;;;;;28.36;31.87;100430.56;5049715;27;47213;-83
2023/03/24 09:14:21;;;;;;;;;3.33;3.33;;;;;28.32;31.41;100431.22;5049003;27;46364;-83
2023/03/24 09:16:47;;;;;;;;;3.00;2.00;;;;;28.27;31.48;100429.09;5055181;27;46108;-82
2023/03/24 09:19:13;;;;;;;;;1.00;1.00;;;;;28.24;31.42;100421.31;5048403;27;46363;-83
2023/03/24 09:21:40;;;;;;;;;3.00;2.00;;;;;28.21;31.16;100416.25;5048625;27;46448;-85
2023/03/24 09:24:06;;;;;;;;;2.00;2.00;;;;;28.20;30.97;100422.78;5054480;27;46992;-81
2023/03/24 09:26:32;;;;;;;;;4.00;2.00;;;;;28.17;31.24;100423.19;5050639;27;46828;-83
2023/03/24 09:28:58;;;;;;;;;1.00;1.00;;;;;28.15;31.02;100426.09;5049528;27;45815;-83
2023/03/24 09:31:23;;;;;;;;;3.00;1.67;;;;;28.19;31.27;100423.81;5047353;27;46947;-78
2023/03/24 09:33:49;;;;;;;;;2.33;2.33;;;;;28.22;31.05;100434.31;5048363;27;45558;-76
2023/03/24 09:36:15;;;;;;;;;1.00;0.67;;;;;28.22;30.96;100435.16;5044701;27;46243;-75
2023/03/24 09:38:40;;;;;;;;;2.00;2.00;;;;;28.27;31.37;100431.81;5049182;27;45818;-76
2023/03/24 09:41:15;;;;;;;;;0.67;0.67;;;;;28.28;31.46;100431.63;5048398;27;46628;-75
2023/03/24 09:43:50;;;;;;;;;2.00;1.00;;;;;28.36;31.22;100436.03;5050657;27;45965;-75
2023/03/24 09:46:37;;;;;;;;;1.33;0.67;;;;;28.40;31.15;100440.03;5052952;27;47065;-75
2023/03/24 09:49:04;;;;;;;;;1.00;1.00;;;;;28.41;30.94;100447.16;5064884;27;47060;-76
2023/03/24 09:51:39;;;;;;;;;4.00;2.00;;;;;28.44;31.58;100436.88;5046135;27;47260;-76
2023/03/24 09:54:26;;;;;;;;;1.00;1.00;;;;;28.51;30.98;100456.81;5042804;27;45714;-76
2023/03/24 09:56:54;;;;;;;;;4.00;1.33;;;;;28.54;31.02;100453.69;5049303;27;46220;-78
2023/03/24 09:59:22;;;;;;;;;2.00;2.00;;;;;28.58;31.59;100448.63;5050688;27;46225;-79
2023/03/24 10:01:48;;;;;;;;;1.00;1.00;;;;;28.58;31.08;100445.91;5048471;27;47886;-78
2023/03/24 10:04:26;;;;;;;;;1.00;1.00;;;;;28.63;31.18;100460.63;5048851;27;45942;-76
2023/03/24 10:07:06;;;;;;;;;2.33;1.67;;;;;28.63;31.09;100457.03;5049910;27;46228;-75
2023/03/24 10:09:33;;;;;;;;;1.33;1.00;;;;;28.66;31.02;100457.44;5048644;27;46358;-75
2023/03/24 10:12:28;;;;;;;;;2.33;1.00;;;;;28.69;31.72;100455.38;5049077;27;47101;-75
2023/03/24 10:15:11;;;;;;;;;2.00;1.00;;;;;28.67;30.91;100464.59;5064135;27;45848;-75
2023/03/24 10:17:52;;;;;;;;;2.33;1.00;;;;;28.74;30.94;100459.16;5054435;27;46017;-76
2023/03/24 10:20:30;;;;;;;;;1.33;1.33;;;;;28.79;31.34;100456.63;5058231;27;45850;-75
2023/03/24 10:23:22;;;;;;;;;3.33;1.00;;;;;28.81;31.43;100470.03;5053384;27;46800;-78
2023/03/24 10:26:04;;;;;;;;;0.00;0.00;;;;;28.85;31.65;100475.94;5051408;27;45851;-81
2023/03/24 10:28:50;;;;;;;;;3.00;2.67;;;;;28.88;31.06;100470.03;5049329;27;46601;-75
2023/03/24 10:31:22;;;;;;;;;1.00;1.00;;;;;28.86;31.25;100467.53;5048419;27;46401;-75
2023/03/24 10:33:47;;;;;;;;;1.00;1.00;;;;;28.86;31.29;100477.63;5047899;27;46968;-77
2023/03/24 10:36:17;;;;;;;;;6.33;2.67;;;;;28.83;30.60;100480.75;5048375;27;46213;-77
2023/03/24 10:38:43;;;;;;;;;1.33;1.33;;;;;28.78;31.44;100484.13;5047908;27;46087;-77
2023/03/24 10:41:16;;;;;;;;;2.00;0.67;;;;;28.69;30.78;100466.28;5048384;27;46934;-79
2023/03/24 10:43:43;;;;;;;;;2.33;2.33;;;;;28.65;30.71;100476.78;5051761;27;46409;-79
2023/03/24 10:46:13;;;;;;;;;1.67;1.33;;;;;28.59;30.48;100475.72;5047177;27;46351;-75
2023/03/24 10:48:38;;;;;;;;;1.00;1.00;;;;;28.60;30.55;100482.03;5047995;27;46952;-75
2023/03/24 10:51:05;;;;;;;;;2.00;2.00;;;;;28.61;31.19;100486.44;5048050;27;46071;-76
2023/03/24 10:53:32;;;;;;;;;2.67;2.67;;;;;28.63;30.78;100481.59;5047482;27;46330;-75
2023/03/24 10:55:58;;;;;;;;;1.67;1.33;;;;;28.67;30.58;100475.53;5048294;27;45648;-75
2023/03/24 10:58:37;;;;;;;;;3.00;1.33;;;;;28.70;30.64;100482.47;5048340;27;46794;-75
2023/03/24 11:01:21;;;;;;;;;3.67;2.00;;;;;28.82;30.82;100482.66;5047766;27;46781;-75
2023/03/24 11:03:48;;;;;;;;;0.67;0.67;;;;;28.86;30.84;100481.19;5057109;27;47796;-74
2023/03/24 11:06:19;;;;;;;;;1.00;1.00;;;;;28.92;30.54;100483.13;5047213;27;45832;-75
2023/03/24 11:08:45;;;;;;;;;0.67;0.00;;;;;28.96;31.48;100485.41;5046104;27;46946;-75
2023/03/24 11:11:22;;;;;;;;;3.00;1.00;;;;;29.04;30.55;100490.66;5046926;27;47027;-75
2023/03/24 11:14:00;;;;;;;;;2.00;1.00;;;;;29.08;31.09;100488.31;5047453;27;47501;-75
2023/03/24 11:16:27;;;;;;;;;1.67;1.00;;;;;29.09;31.09;100485.38;5046771;27;46173;-76
2023/03/24 11:19:04;;;;;;;;;1.67;1.67;;;;;29.07;30.94;100479.31;5053382;27;46270;-75
2023/03/24 11:21:33;;;;;;;;;1.00;0.00;;;;;29.14;31.00;100487.50;5052418;27;45472;-76
2023/03/24 11:24:03;;;;;;;;;1.67;1.00;;;;;29.16;30.69;100488.09;5047714;27;45921;-84
2023/03/24 11:26:35;;;;;;;;;0.00;0.00;;;;;29.20;31.17;100478.44;5048353;27;46162;-76
2023/03/24 11:29:06;;;;;;;;;6.00;4.33;;;;;29.23;31.06;100458.91;5048817;27;47143;-82
2023/03/24 11:31:37;;;;;;;;;3.67;3.00;;;;;29.31;30.78;100463.28;5052550;27;45639;-82
2023/03/24 11:34:15;;;;;;;;;3.33;2.33;;;;;29.36;30.82;100459.88;5053396;27;45766;-83
2023/03/24 11:37:22;;;;;;;;;2.33;2.00;;;;;29.35;30.57;100461.81;5052507;27;46753;-81
2023/03/24 11:40:06;;;;;;;;;1.00;1.00;;;;;29.33;30.80;100472.09;5020051;28;45534;-82
2023/03/24 11:42:31;;;;;;;;;1.67;1.00;;;;;29.28;30.42;100459.09;5016333;28;47069;-83